Time;durP1;ratioP1;P1;durP2;ratioP2;P2;SDS_P1;SDS_P2;PMS_P1;PMS_P2;Temp;Humidity;BMP_temperature;BMP_pressure;BME280_temperature;BME280_humidity;BME280_pressure;Samples;Min_cycle;Max_cycle;Signal;HPM_P1;HPM_P2
2022/05/23 00:02:16;;;;;;;5.20;3.28;;;22.20;94.70;;;;;;5047363;28;20690;-38
2022/05/23 00:04:43;;;;;;;4.93;3.17;;;22.10;94.60;;;;;;5047356;28;20243;-38
2022/05/23 00:07:23;;;;;;;6.20;3.17;;;22.10;94.60;;;;;;5047925;28;20200;-38
2022/05/23 00:09:53;;;;;;;4.63;3.33;;;22.00;94.60;;;;;;5048272;28;20244;-38
2022/05/23 00:12:22;;;;;;;5.47;3.40;;;22.00;94.50;;;;;;5029328;28;20224;-38
2022/05/23 00:14:52;;;;;;;7.72;3.97;;;21.90;94.50;;;;;;5035946;28;20299;-38
2022/05/23 00:17:19;;;;;;;5.47;3.88;;;21.90;94.50;;;;;;5041175;28;20572;-38
2022/05/23 00:19:50;;;;;;;4.72;3.53;;;21.90;94.60;;;;;;5027774;28;20295;-38
2022/05/23 00:22:22;;;;;;;6.68;3.80;;;21.80;94.50;;;;;;5027851;28;20201;-38
2022/05/23 00:24:49;;;;;;;6.10;3.70;;;21.80;94.50;;;;;;5028284;28;20297;-38
2022/05/23 00:27:20;;;;;;;4.72;3.70;;;21.70;94.50;;;;;;5027663;28;20216;-38
2022/05/23 00:29:47;;;;;;;5.75;3.60;;;21.70;94.50;;;;;;5026667;28;20671;-38
2022/05/23 00:35:19;;;;;;;6.55;3.65;;;21.60;94.50;;;;;;5048060;28;20196;-38
2022/05/23 00:37:52;;;;;;;5.75;3.33;;;21.60;94.50;;;;;;5050012;28;20206;-38
2022/05/23 00:43:13;;;;;;;8.30;4.13;;;21.60;94.50;;;;;;5067704;28;20196;-38
2022/05/23 00:43:48;;;;;;;7.45;3.97;;;21.50;94.40;;;;;;5067455;28;20292;-38
2022/05/23 00:46:15;;;;;;;7.10;3.90;;;21.50;94.30;;;;;;5032179;28;20209;-38
2022/05/23 00:48:45;;;;;;;5.65;3.60;;;21.50;94.40;;;;;;5045843;28;20219;-38
2022/05/23 00:51:16;;;;;;;6.72;3.90;;;21.50;94.40;;;;;;5026584;28;20205;-34
2022/05/23 00:53:51;;;;;;;4.88;3.53;;;21.50;94.40;;;;;;5027808;28;20647;-34
2022/05/23 00:56:22;;;;;;;7.30;3.83;;;21.40;94.40;;;;;;5027136;28;20746;-33
2022/05/23 00:58:56;;;;;;;6.72;4.05;;;21.40;94.40;;;;;;5036080;28;20266;-34
2022/05/23 01:01:27;;;;;;;5.43;4.00;;;21.40;94.50;;;;;;5044977;28;20287;-35
2022/05/23 01:03:59;;;;;;;6.45;4.07;;;21.40;94.50;;;;;;5047451;28;20211;-34
2022/05/23 01:06:29;;;;;;;8.10;4.45;;;21.30;94.50;;;;;;5046334;28;20503;-34
2022/05/23 01:08:56;;;;;;;6.70;4.22;;;21.30;94.40;;;;;;5046987;28;20193;-34
2022/05/23 01:11:24;;;;;;;6.53;4.20;;;21.30;94.50;;;;;;5047219;28;20212;-35
2022/05/23 01:13:54;;;;;;;7.85;4.30;;;21.30;94.50;;;;;;5045685;28;20211;-34
2022/05/23 01:16:24;;;;;;;8.13;4.55;;;21.30;94.50;;;;;;5049984;28;20253;-34
2022/05/23 01:18:51;;;;;;;6.43;4.47;;;21.30;94.50;;;;;;5049546;28;20238;-34
2022/05/23 01:21:58;;;;;;;6.95;4.63;;;21.30;94.50;;;;;;5050859;28;20750;-34
2022/05/23 01:24:41;;;;;;;8.25;4.80;;;21.30;94.50;;;;;;5047445;28;20575;-34
2022/05/23 01:27:09;;;;;;;6.35;3.90;;;21.20;94.50;;;;;;5050812;28;20196;-34
2022/05/23 01:29:37;;;;;;;7.55;4.72;;;21.20;94.50;;;;;;5050235;28;20220;-34
2022/05/23 01:32:04;;;;;;;6.70;4.55;;;21.20;94.80;;;;;;5050435;28;20318;-34
2022/05/23 01:34:31;;;;;;;6.35;4.40;;;21.20;94.50;;;;;;5050797;28;20295;-33
2022/05/23 01:37:00;;;;;;;6.00;4.38;;;21.20;94.50;;;;;;5036116;28;20217;-34
2022/05/23 01:39:27;;;;;;;8.98;4.53;;;21.20;94.60;;;;;;5052407;28;20659;-34
2022/05/23 01:41:55;;;;;;;7.55;4.28;;;21.20;94.60;;;;;;5035767;28;20291;-34
2022/05/23 01:44:22;;;;;;;7.72;4.85;;;21.10;94.50;;;;;;5030027;28;20228;-34
2022/05/23 01:46:49;;;;;;;11.23;4.80;;;21.10;94.60;;;;;;5045598;28;20262;-34
2022/05/23 01:49:17;;;;;;;7.18;4.40;;;21.10;94.60;;;;;;5070474;28;20239;-33
2022/05/23 01:51:44;;;;;;;6.20;4.20;;;21.10;94.70;;;;;;5068872;28;20261;-34
2022/05/23 01:54:12;;;;;;;5.63;4.53;;;21.10;94.70;;;;;;5036678;28;20660;-34
2022/05/23 01:56:39;;;;;;;5.68;4.20;;;21.10;94.80;;;;;;5037372;28;20264;-33
2022/05/23 02:01:55;;;;;;;6.63;4.75;;;21.10;94.80;;;;;;5049879;28;20214;-34
2022/05/23 02:04:22;;;;;;;5.53;4.57;;;21.10;94.90;;;;;;5050567;28;20222;-34
2022/05/23 02:06:49;;;;;;;8.98;4.57;;;21.10;95.00;;;;;;5050153;28;20196;-34
2022/05/23 02:09:26;;;;;;;5.07;4.43;;;21.10;95.10;;;;;;5049188;28;20690;-34
2022/05/23 02:11:53;;;;;;;6.20;4.53;;;21.10;95.10;;;;;;5029101;28;20673;-38
2022/05/23 02:14:21;;;;;;;7.03;4.93;;;21.10;95.10;;;;;;5041338;28;20221;-37
2022/05/23 02:16:53;;;;;;;7.50;4.57;;;21.10;95.20;;;;;;5048143;28;20541;-37
2022/05/23 02:19:20;;;;;;;5.40;4.28;;;21.10;95.30;;;;;;5050002;28;20228;-37
2022/05/23 02:21:47;;;;;;;6.80;4.40;;;21.10;95.30;;;;;;5049939;28;20196;-37
2022/05/23 02:24:17;;;;;;;5.65;4.03;;;21.00;95.30;;;;;;5050209;28;20219;-37
2022/05/23 02:26:44;;;;;;;7.00;4.35;;;21.00;95.40;;;;;;5042883;28;20307;-38
2022/05/23 02:29:14;;;;;;;7.15;4.72;;;21.00;95.30;;;;;;5027963;28;20200;-38
2022/05/23 02:31:41;;;;;;;7.85;5.25;;;21.00;95.30;;;;;;5045183;28;20236;-38
2022/05/23 02:34:10;;;;;;;6.22;5.43;;;21.00;95.30;;;;;;5049729;28;20196;-38
2022/05/23 02:36:37;;;;;;;8.80;5.88;;;20.90;95.30;;;;;;5049267;28;20258;-38
2022/05/23 02:39:05;;;;;;;10.55;6.70;;;20.90;95.20;;;;;;5062924;28;20196;-38
2022/05/23 02:41:36;;;;;;;7.82;6.15;;;20.90;95.20;;;;;;5069318;28;20219;-38
2022/05/23 02:44:04;;;;;;;8.57;6.07;;;20.90;95.20;;;;;;5052920;28;21077;-38
2022/05/23 02:46:31;;;;;;;10.48;6.40;;;20.90;95.20;;;;;;5027824;28;20209;-38
2022/05/23 02:48:59;;;;;;;9.98;6.57;;;20.90;95.20;;;;;;5043751;28;20206;-38
2022/05/23 02:51:26;;;;;;;9.65;6.60;;;20.80;95.20;;;;;;5049225;28;20220;-38
2022/05/23 02:53:55;;;;;;;7.03;6.25;;;20.80;95.20;;;;;;5049197;28;20323;-38
2022/05/23 02:56:25;;;;;;;7.60;5.93;;;20.80;95.30;;;;;;5049035;28;20243;-38
2022/05/23 02:58:52;;;;;;;7.97;5.85;;;20.70;95.20;;;;;;5047333;28;20250;-38
2022/05/23 03:01:19;;;;;;;7.22;6.18;;;20.70;95.20;;;;;;5039015;28;20217;-38
2022/05/23 03:03:49;;;;;;;7.22;6.07;;;20.70;95.30;;;;;;5029380;28;20263;-38
2022/05/23 03:06:24;;;;;;;7.78;6.20;;;20.60;95.30;;;;;;5029157;28;20279;-38
2022/05/23 03:08:53;;;;;;;7.88;6.20;;;20.60;95.30;;;;;;5033253;28;20220;-39
2022/05/23 03:11:23;;;;;;;8.05;6.13;;;20.60;95.30;;;;;;5049282;28;20287;-38
2022/05/23 03:13:50;;;;;;;6.95;6.20;;;20.50;95.30;;;;;;5048463;28;20319;-38
2022/05/23 03:16:19;;;;;;;8.13;6.18;;;20.50;95.30;;;;;;5048655;28;20216;-38
2022/05/23 03:18:47;;;;;;;7.47;5.90;;;20.40;95.30;;;;;;5034388;28;20204;-38
2022/05/23 03:26:58;;;;;;;7.68;5.82;;;20.40;95.40;;;;;;5032324;28;20208;-38
2022/05/23 03:26:58;;;;;;;10.60;5.80;;;20.40;95.70;;;;;;5048869;28;20402;-38
2022/05/23 03:29:28;;;;;;;8.05;5.95;;;20.30;95.80;;;;;;5047031;28;20287;-38
2022/05/23 03:31:57;;;;;;;9.68;6.28;;;20.30;95.50;;;;;;5048217;28;20297;-38
2022/05/23 03:34:24;;;;;;;10.30;6.38;;;20.30;95.50;;;;;;5047781;28;20223;-38
2022/05/23 03:36:51;;;;;;;8.27;5.80;;;20.20;95.40;;;;;;5048411;28;20295;-38
2022/05/23 03:39:19;;;;;;;6.53;5.47;;;20.20;95.40;;;;;;5038376;28;20699;-38
2022/05/23 03:41:46;;;;;;;8.52;5.53;;;20.20;95.40;;;;;;5028485;28;20213;-39
2022/05/23 03:44:13;;;;;;;6.25;5.30;;;20.20;95.50;;;;;;5026775;28;20240;-39
2022/05/23 03:46:41;;;;;;;8.85;6.53;;;20.20;95.60;;;;;;5028109;28;20300;-38
2022/05/23 03:49:11;;;;;;;7.80;6.03;;;20.20;95.50;;;;;;5028597;28;20904;-39
2022/05/23 03:51:38;;;;;;;8.35;6.18;;;20.20;95.70;;;;;;5028306;28;20221;-39
2022/05/23 03:54:08;;;;;;;7.88;5.97;;;20.10;95.60;;;;;;5026764;28;20762;-34
2022/05/23 03:56:38;;;;;;;6.78;5.30;;;20.10;95.50;;;;;;5027783;28;20267;-34
2022/05/23 03:59:10;;;;;;;8.55;5.78;;;20.10;95.50;;;;;;5043097;28;20229;-38
2022/05/23 04:01:37;;;;;;;9.07;5.38;;;20.10;95.60;;;;;;5047421;28;20200;-39
2022/05/23 04:04:05;;;;;;;8.15;5.63;;;20.10;95.70;;;;;;5048248;28;20270;-38
2022/05/23 04:06:35;;;;;;;7.75;6.18;;;20.10;95.70;;;;;;5047946;28;20203;-39
2022/05/23 04:09:02;;;;;;;7.65;5.55;;;20.10;95.70;;;;;;5045027;28;20279;-38
2022/05/23 04:11:29;;;;;;;10.50;5.68;;;20.10;95.80;;;;;;5046431;28;20299;-38
2022/05/23 04:13:56;;;;;;;10.73;5.90;;;20.10;95.80;;;;;;5028208;28;20778;-39
2022/05/23 04:16:27;;;;;;;7.20;5.10;;;20.10;95.80;;;;;;5025818;28;20771;-39
2022/05/23 04:18:57;;;;;;;7.65;5.30;;;20.10;95.90;;;;;;5027987;28;20203;-39
2022/05/23 04:21:24;;;;;;;8.43;5.57;;;20.10;95.90;;;;;;5046331;28;20204;-39
2022/05/23 04:23:52;;;;;;;7.72;5.32;;;20.10;95.90;;;;;;5048034;28;20223;-39
2022/05/23 04:26:21;;;;;;;6.95;5.10;;;20.10;96.00;;;;;;5045317;28;20218;-39
2022/05/23 04:28:51;;;;;;;6.80;5.25;;;20.10;96.10;;;;;;5046703;28;20299;-39
2022/05/23 04:31:19;;;;;;;7.05;5.18;;;20.10;96.10;;;;;;5027585;28;20213;-34
2022/05/23 04:36:32;;;;;;;8.43;5.82;;;20.10;96.20;;;;;;5028201;28;20197;-34
2022/05/23 04:39:02;;;;;;;7.03;5.28;;;20.10;96.20;;;;;;5053276;28;20302;-34
2022/05/23 04:41:31;;;;;;;8.52;5.72;;;20.10;96.20;;;;;;5067243;28;20223;-34
2022/05/23 04:44:01;;;;;;;8.18;5.88;;;20.10;96.20;;;;;;5035308;28;20252;-34
2022/05/23 04:46:28;;;;;;;7.93;5.40;;;20.10;96.10;;;;;;5037865;28;20211;-35
2022/05/23 04:51:44;;;;;;;9.85;6.18;;;20.10;96.20;;;;;;5050990;28;20338;-34
2022/05/23 04:54:16;;;;;;;6.00;5.15;;;20.10;96.10;;;;;;5051368;28;20285;-34
2022/05/23 04:56:43;;;;;;;9.05;5.40;;;20.20;96.20;;;;;;5051602;28;20235;-34
2022/05/23 04:59:12;;;;;;;9.30;5.32;;;20.20;96.20;;;;;;5050516;28;20219;-34
2022/05/23 05:01:40;;;;;;;6.75;5.70;;;20.20;96.30;;;;;;5029551;28;20216;-34
2022/05/23 05:04:09;;;;;;;8.18;5.60;;;20.20;96.30;;;;;;5039589;28;20303;-35
2022/05/23 05:06:38;;;;;;;8.10;5.45;;;20.20;96.30;;;;;;5049553;28;20702;-34
2022/05/23 05:09:06;;;;;;;6.47;5.45;;;20.30;96.40;;;;;;5051506;28;20654;-34
2022/05/23 05:11:33;;;;;;;6.10;5.25;;;20.30;96.50;;;;;;5051212;28;20200;-35
2022/05/23 05:14:00;;;;;;;8.88;5.50;;;20.30;96.50;;;;;;5050888;28;20234;-35
2022/05/23 05:16:27;;;;;;;7.15;5.35;;;20.40;96.60;;;;;;5049769;28;20232;-38
2022/05/23 05:19:00;;;;;;;6.18;4.82;;;20.40;96.60;;;;;;5032245;28;20642;-38
2022/05/23 05:21:27;;;;;;;7.78;5.15;;;20.50;96.70;;;;;;5031569;28;20235;-38
2022/05/23 05:23:55;;;;;;;6.90;4.82;;;20.60;96.80;;;;;;5031506;28;20678;-38
2022/05/23 05:26:23;;;;;;;8.30;4.97;;;20.60;96.70;;;;;;5031097;28;20581;-38
2022/05/23 05:28:51;;;;;;;8.20;4.72;;;20.70;96.80;;;;;;5031315;28;20838;-38
2022/05/23 05:31:27;;;;;;;8.45;5.07;;;20.70;96.80;;;;;;5030536;28;20740;-38
2022/05/23 05:34:01;;;;;;;10.27;4.90;;;20.70;96.80;;;;;;5031411;28;20795;-38
2022/05/23 05:36:36;;;;;;;6.93;4.80;;;20.70;96.80;;;;;;5030683;28;20307;-38
2022/05/23 05:39:07;;;;;;;11.68;5.65;;;20.70;96.80;;;;;;5062750;28;20287;-38
2022/05/23 05:42:05;;;;;;;9.38;4.78;;;20.70;96.80;;;;;;5070637;28;20652;-38
2022/05/23 05:44:34;;;;;;;7.28;4.68;;;20.70;96.80;;;;;;5070064;28;20223;-38
2022/05/23 05:47:09;;;;;;;8.27;4.85;;;20.70;96.80;;;;;;5070052;28;20218;-38
2022/05/23 05:49:57;;;;;;;9.13;4.28;;;20.70;96.80;;;;;;5071241;28;20208;-38
2022/05/23 05:52:31;;;;;;;7.72;4.85;;;20.70;96.80;;;;;;5032978;28;20225;-39
2022/05/23 05:55:05;;;;;;;9.75;4.90;;;20.70;96.90;;;;;;5040036;28;20258;-38
2022/05/23 05:57:33;;;;;;;6.78;4.32;;;20.80;96.90;;;;;;5050174;28;20204;-39
2022/05/23 06:00:02;;;;;;;7.03;4.30;;;20.80;96.90;;;;;;5050931;28;20200;-35
2022/05/23 06:02:30;;;;;;;8.10;4.78;;;20.80;96.90;;;;;;5049980;28;20211;-35
2022/05/23 06:04:59;;;;;;;9.73;4.75;;;20.80;96.90;;;;;;5050182;28;20449;-34
2022/05/23 06:13:07;;;;;;;17.05;6.20;;;20.90;97.00;;;;;;5030010;28;20228;-34
2022/05/23 06:15:35;;;;;;;15.70;5.30;;;20.90;97.10;;;;;;5030092;28;20291;-34
2022/05/23 06:18:04;;;;;;;7.03;3.95;;;20.90;97.00;;;;;;5045323;28;20470;-38
2022/05/23 06:20:34;;;;;;;7.57;3.88;;;21.00;97.10;;;;;;5044976;28;20217;-38
2022/05/23 06:23:03;;;;;;;9.75;4.05;;;21.00;97.10;;;;;;5030085;28;20200;-38
2022/05/23 06:25:31;;;;;;;6.00;3.88;;;21.00;97.10;;;;;;5030117;28;20295;-38
2022/05/23 06:27:58;;;;;;;5.82;3.78;;;21.10;97.20;;;;;;5030028;28;20388;-38
2022/05/23 06:30:28;;;;;;;4.90;4.00;;;21.10;97.20;;;;;;5049647;28;20262;-38
2022/05/23 06:32:56;;;;;;;6.15;4.22;;;21.20;97.20;;;;;;5049196;28;20203;-38
2022/05/23 06:35:23;;;;;;;5.00;4.03;;;21.20;97.30;;;;;;5049536;28;20648;-38
2022/05/23 06:37:50;;;;;;;6.00;4.30;;;21.20;97.40;;;;;;5052577;28;20199;-38
2022/05/23 06:40:20;;;;;;;7.35;4.22;;;21.30;97.50;;;;;;5069934;28;20211;-38
2022/05/23 06:42:48;;;;;;;5.80;4.43;;;21.30;97.50;;;;;;5041388;28;20205;-38
2022/05/23 06:45:16;;;;;;;7.38;4.47;;;21.40;97.60;;;;;;5032031;28;20216;-38
2022/05/23 06:47:43;;;;;;;11.23;4.85;;;21.40;97.60;;;;;;5049037;28;20681;-38
2022/05/23 06:50:10;;;;;;;8.27;4.65;;;21.50;97.60;;;;;;5064047;28;20674;-37
2022/05/23 06:52:38;;;;;;;7.50;4.57;;;21.50;97.60;;;;;;5069510;28;20196;-38
2022/05/23 06:55:07;;;;;;;7.18;4.40;;;21.50;97.60;;;;;;5067482;28;20641;-38
2022/05/23 06:57:36;;;;;;;5.75;4.07;;;21.60;97.60;;;;;;5068908;28;20199;-38
2022/05/23 07:00:05;;;;;;;9.98;4.50;;;21.60;97.60;;;;;;5035849;28;20209;-37
2022/05/23 07:02:35;;;;;;;7.18;4.55;;;21.60;97.70;;;;;;5033054;28;20239;-38
2022/05/23 07:13:21;;;;;;;8.18;4.50;;;21.80;98.00;;;;;;5027854;28;20216;-37
2022/05/23 07:15:53;;;;;;;8.55;4.25;;;21.90;98.00;;;;;;5033898;28;20756;-38
2022/05/23 07:18:20;;;;;;;10.98;3.88;;;21.90;98.10;;;;;;5048621;28;20287;-38
2022/05/23 07:20:47;;;;;;;6.18;3.78;;;21.90;98.10;;;;;;5030613;28;20416;-38
2022/05/23 07:23:17;;;;;;;6.43;3.88;;;22.00;98.10;;;;;;5037844;28;20581;-38
2022/05/23 07:25:47;;;;;;;8.50;4.75;;;22.00;98.20;;;;;;5048606;28;20224;-38
2022/05/23 07:28:14;;;;;;;7.40;3.95;;;22.00;98.20;;;;;;5047989;28;20216;-38
2022/05/23 07:30:45;;;;;;;7.13;3.90;;;22.00;98.20;;;;;;5048377;28;20196;-38
2022/05/23 07:33:15;;;;;;;5.00;3.70;;;22.00;98.30;;;;;;5045375;28;20211;-38
2022/05/23 07:35:52;;;;;;;5.50;3.78;;;22.00;98.30;;;;;;5048372;28;20305;-38
2022/05/23 07:38:24;;;;;;;6.30;4.40;;;22.10;98.40;;;;;;5042720;28;20199;-39
2022/05/23 07:40:52;;;;;;;5.90;3.83;;;22.10;98.40;;;;;;5068223;28;20294;-39
2022/05/23 07:43:20;;;;;;;6.07;3.85;;;22.10;98.50;;;;;;5068018;28;20188;-39
2022/05/23 07:45:50;;;;;;;7.60;4.80;;;22.20;98.50;;;;;;5066987;28;20307;-39
2022/05/23 07:48:18;;;;;;;6.68;3.88;;;22.20;98.50;;;;;;5066623;28;20195;-39
2022/05/23 07:50:45;;;;;;;6.03;3.80;;;22.20;98.40;;;;;;5029681;28;20233;-35
2022/05/23 08:01:33;;;;;;;4.93;3.15;;;22.40;98.50;;;;;;5047337;28;20299;-39
2022/05/23 08:04:00;;;;;;;3.33;2.50;;;22.50;98.60;;;;;;5047858;28;20214;-39
2022/05/23 08:06:28;;;;;;;4.47;2.42;;;22.60;98.60;;;;;;5045731;28;20585;-39
2022/05/23 08:08:55;;;;;;;4.68;2.10;;;22.60;98.60;;;;;;5047863;28;20208;-39
2022/05/23 08:11:25;;;;;;;3.03;2.20;;;22.80;98.60;;;;;;5046864;28;20285;-38
2022/05/23 08:13:55;;;;;;;4.93;2.58;;;22.80;98.60;;;;;;5047398;28;20310;-38
2022/05/23 08:16:23;;;;;;;8.18;2.55;;;22.90;98.60;;;;;;5047538;28;20208;-38
2022/05/23 08:18:53;;;;;;;3.50;2.08;;;23.00;98.60;;;;;;5047955;28;20640;-38
2022/05/23 08:21:25;;;;;;;12.05;2.97;;;23.10;98.70;;;;;;5047763;28;20257;-38
2022/05/23 08:23:52;;;;;;;7.75;2.47;;;23.10;98.70;;;;;;5038888;28;20617;-39
2022/05/23 08:26:20;;;;;;;5.50;2.50;;;23.30;98.70;;;;;;5043777;28;20204;-38
2022/05/23 08:28:47;;;;;;;6.15;2.65;;;23.30;98.70;;;;;;5028845;28;20234;-38
2022/05/23 08:31:15;;;;;;;5.15;2.28;;;23.40;98.70;;;;;;5025992;28;20250;-39
2022/05/23 08:33:42;;;;;;;6.15;2.22;;;23.40;98.60;;;;;;5027885;28;20670;-38
2022/05/23 08:36:10;;;;;;;5.40;2.28;;;23.50;98.60;;;;;;5027761;28;20231;-39
2022/05/23 08:38:39;;;;;;;4.18;2.20;;;23.50;98.60;;;;;;5047537;28;20238;-38
2022/05/23 08:41:16;;;;;;;3.80;2.20;;;23.60;98.60;;;;;;5051458;28;20205;-35
2022/05/23 08:44:15;;;;;;;3.75;2.38;;;23.60;98.60;;;;;;5027891;28;20258;-35
2022/05/23 08:47:22;;;;;;;6.32;1.90;;;23.70;98.60;;;;;;5027638;28;20749;-35
2022/05/23 08:50:11;;;;;;;3.08;1.90;;;23.70;98.70;;;;;;5027627;28;20270;-35
2022/05/23 08:52:56;;;;;;;4.32;2.10;;;23.80;98.70;;;;;;5026068;28;20292;-35
2022/05/23 08:55:47;;;;;;;5.82;2.33;;;23.80;99.00;;;;;;5027229;28;20248;-35
2022/05/23 08:58:29;;;;;;;3.67;1.85;;;23.90;98.80;;;;;;5026189;28;20602;-35
2022/05/23 09:01:06;;;;;;;6.25;2.13;;;24.00;98.80;;;;;;5026619;28;20201;-36
2022/05/23 09:03:51;;;;;;;2.47;1.80;;;24.10;98.80;;;;;;5047567;28;20208;-35
2022/05/23 09:06:27;;;;;;;2.60;2.10;;;24.10;98.80;;;;;;5045579;28;20203;-35
2022/05/23 09:08:57;;;;;;;1.90;1.70;;;24.20;98.80;;;;;;5047298;28;20620;-35
2022/05/23 09:11:32;;;;;;;3.20;2.00;;;24.20;98.80;;;;;;5047225;28;20200;-35
2022/05/23 09:14:00;;;;;;;4.45;1.88;;;24.20;98.80;;;;;;5047203;28;20330;-35
2022/05/23 09:16:44;;;;;;;2.90;1.90;;;24.30;98.80;;;;;;5038537;28;20204;-35
2022/05/23 09:19:20;;;;;;;2.53;1.60;;;24.30;98.80;;;;;;5034777;28;20670;-35
2022/05/23 09:24:53;;;;;;;2.28;1.63;;;24.40;98.80;;;;;;5027143;28;20213;-34
2022/05/23 09:27:25;;;;;;;2.72;1.75;;;24.50;98.80;;;;;;5026700;28;20647;-34
2022/05/23 09:29:55;;;;;;;4.25;1.90;;;24.50;98.80;;;;;;5040564;28;20781;-34
2022/05/23 09:32:27;;;;;;;2.42;1.40;;;24.60;98.90;;;;;;5035215;28;20208;-35
2022/05/23 09:35:03;;;;;;;2.50;1.70;;;24.70;98.90;;;;;;5043048;28;20724;-35
2022/05/23 09:37:38;;;;;;;3.85;1.55;;;24.70;98.90;;;;;;5050869;28;20220;-35
2022/05/23 09:40:29;;;;;;;3.72;1.10;;;24.70;98.90;;;;;;5070819;28;20243;-34
2022/05/23 09:49:12;;;;;;;3.60;1.58;;;24.90;98.70;;;;;;5058049;28;20208;-34
2022/05/23 09:51:58;;;;;;;3.10;1.48;;;25.00;98.70;;;;;;5031177;28;20644;-34
2022/05/23 09:54:43;;;;;;;3.35;1.40;;;25.00;98.60;;;;;;5030481;28;20235;-34
2022/05/23 09:57:24;;;;;;;2.70;1.33;;;25.00;98.60;;;;;;5030095;28;20228;-34
2022/05/23 10:00:17;;;;;;;1.73;1.30;;;25.10;98.60;;;;;;5030683;28;20197;-34
2022/05/23 10:02:53;;;;;;;3.03;1.40;;;25.10;98.60;;;;;;5029416;28;20205;-34
2022/05/23 10:05:53;;;;;;;4.90;1.50;;;25.10;98.60;;;;;;5031305;28;20211;-34
2022/05/23 10:08:35;;;;;;;4.00;1.50;;;25.20;98.70;;;;;;5030147;28;20625;-34
2022/05/23 10:11:06;;;;;;;2.10;1.33;;;25.30;98.70;;;;;;5031071;28;20215;-35
2022/05/23 10:13:38;;;;;;;2.08;1.25;;;25.30;98.80;;;;;;5029834;28;20307;-34
2022/05/23 10:16:13;;;;;;;1.35;1.02;;;25.40;98.80;;;;;;5045748;28;20278;-34
2022/05/23 10:18:57;;;;;;;1.67;1.30;;;25.60;98.90;;;;;;5049850;28;20575;-34
2022/05/23 10:21:28;;;;;;;1.30;1.20;;;25.70;99.00;;;;;;5049946;28;20683;-35
2022/05/23 10:24:05;;;;;;;2.95;1.90;;;25.80;99.10;;;;;;5035575;28;20209;-35
2022/05/23 10:26:44;;;;;;;2.90;1.50;;;25.90;99.10;;;;;;5035805;28;20203;-34
2022/05/23 10:29:42;;;;;;;4.68;2.10;;;26.00;99.00;;;;;;5049327;28;20444;-34
2022/05/23 10:32:14;;;;;;;3.28;2.10;;;26.10;99.00;;;;;;5049245;28;20701;-35
2022/05/23 10:34:50;;;;;;;2.78;1.70;;;26.10;99.00;;;;;;5049525;28;20223;-34
2022/05/23 10:37:26;;;;;;;2.88;2.13;;;26.20;99.10;;;;;;5049863;28;20587;-35
2022/05/23 10:43:04;;;;;;;2.25;1.67;;;26.30;99.10;;;;;;5029030;28;20196;-35
2022/05/23 10:45:46;;;;;;;4.25;2.20;;;26.40;99.10;;;;;;5049287;28;20239;-35
2022/05/23 10:48:41;;;;;;;5.78;2.40;;;26.50;99.10;;;;;;5047807;28;20298;-35
2022/05/23 10:51:18;;;;;;;5.05;2.00;;;26.60;99.10;;;;;;5048898;28;20702;-34
2022/05/23 10:54:01;;;;;;;2.85;2.05;;;26.60;98.90;;;;;;5067316;28;20761;-35
2022/05/23 10:57:04;;;;;;;5.40;1.90;;;26.70;99.00;;;;;;5062588;28;20339;-34
2022/05/23 11:00:03;;;;;;;6.28;1.90;;;26.80;99.10;;;;;;5029249;28;20650;-35
2022/05/23 11:02:49;;;;;;;5.20;2.10;;;26.90;99.20;;;;;;5028778;28;20625;-34
2022/05/23 11:05:44;;;;;;;2.83;1.63;;;26.90;99.20;;;;;;5027936;28;20220;-35
2022/05/23 11:08:20;;;;;;;4.65;2.22;;;27.10;99.30;;;;;;5027503;28;20718;-35
2022/05/23 11:11:35;;;;;;;3.28;1.83;;;27.20;99.30;;;;;;5048716;28;21007;-34
2022/05/23 11:14:22;;;;;;;4.63;2.25;;;27.30;99.30;;;;;;5065357;28;20269;-35
2022/05/23 11:17:06;;;;;;;4.75;2.17;;;27.40;99.20;;;;;;5065263;28;20294;-34
2022/05/23 11:19:45;;;;;;;8.75;2.33;;;27.40;99.10;;;;;;5032291;28;20201;-35
2022/05/23 11:22:20;;;;;;;7.85;2.33;;;27.50;99.10;;;;;;5028749;28;20282;-35
2022/05/23 11:25:12;;;;;;;4.82;2.10;;;27.50;99.10;;;;;;5028492;28;20686;-34
2022/05/23 11:33:41;;;;;;;6.03;2.67;;;27.50;98.90;;;;;;5028607;28;20631;-35
2022/05/23 11:36:15;;;;;;;8.02;2.58;;;27.40;98.90;;;;;;5028989;28;20243;-34
2022/05/23 11:38:47;;;;;;;4.40;2.67;;;27.40;98.90;;;;;;5049064;28;20192;-35
2022/05/23 11:41:41;;;;;;;5.85;2.65;;;27.40;98.90;;;;;;5066929;28;20287;-36
2022/05/23 11:44:44;;;;;;;8.93;2.60;;;27.30;99.00;;;;;;5050826;28;20295;-35
2022/05/23 11:47:25;;;;;;;7.00;2.67;;;27.30;99.00;;;;;;5047747;28;20211;-35
2022/05/23 11:49:58;;;;;;;7.18;2.63;;;27.20;99.10;;;;;;5028768;28;20271;-35
2022/05/23 11:52:34;;;;;;;8.18;2.40;;;27.10;99.20;;;;;;5035861;28;20543;-35
2022/05/23 11:55:02;;;;;;;7.03;2.42;;;27.00;99.30;;;;;;5046409;28;20235;-34
2022/05/23 11:57:41;;;;;;;3.72;2.38;;;26.90;99.20;;;;;;5047224;28;20565;-35
2022/05/23 12:00:36;;;;;;;6.45;2.65;;;26.80;99.20;;;;;;5048032;28;20200;-34
2022/05/23 12:03:10;;;;;;;4.88;2.30;;;26.70;99.20;;;;;;5047456;28;20210;-34
2022/05/23 12:05:38;;;;;;;3.42;2.20;;;26.60;99.20;;;;;;5046719;28;20264;-35
2022/05/23 12:08:24;;;;;;;4.15;2.40;;;26.40;99.10;;;;;;5046843;28;20580;-35
2022/05/23 12:10:58;;;;;;;6.30;2.40;;;26.30;99.10;;;;;;5047554;28;20216;-35
2022/05/23 12:13:31;;;;;;;4.60;2.80;;;26.20;99.20;;;;;;5045637;28;20223;-34
2022/05/23 12:16:20;;;;;;;5.43;2.13;;;26.10;99.30;;;;;;5047094;28;20232;-35
2022/05/23 12:18:50;;;;;;;3.92;2.75;;;26.00;99.30;;;;;;5045975;28;20363;-35
2022/05/23 12:21:45;;;;;;;6.43;2.63;;;25.90;99.40;;;;;;5046328;28;20191;-35
2022/05/23 12:24:21;;;;;;;4.57;2.55;;;25.80;99.50;;;;;;5028953;28;20754;-34
2022/05/23 12:27:33;;;;;;;3.85;2.60;;;25.80;99.40;;;;;;5047513;28;20220;-35
2022/05/23 12:30:27;;;;;;;6.05;2.75;;;25.70;99.40;;;;;;5047716;28;20541;-35
2022/05/23 12:33:10;;;;;;;6.45;3.00;;;25.60;99.60;;;;;;5047112;28;20211;-34
2022/05/23 12:35:44;;;;;;;4.65;3.25;;;25.50;99.70;;;;;;5046133;28;20253;-34
2022/05/23 12:38:43;;;;;;;4.68;2.85;;;25.40;99.70;;;;;;5050942;28;20226;-34
2022/05/23 12:41:38;;;;;;;5.50;2.30;;;25.30;99.90;;;;;;5028090;28;20196;-34
2022/05/23 12:44:35;;;;;;;3.58;2.38;;;25.30;99.90;;;;;;5027820;28;20229;-34
2022/05/23 12:47:24;;;;;;;4.43;2.78;;;25.20;99.90;;;;;;5027085;28;20213;-35
2022/05/23 12:50:05;;;;;;;4.22;2.70;;;25.20;99.90;;;;;;5026525;28;20201;-35
2022/05/23 12:52:57;;;;;;;8.30;3.70;;;25.10;99.90;;;;;;5029214;28;20250;-35
2022/05/23 12:55:38;;;;;;;6.45;2.83;;;25.10;99.90;;;;;;5042893;28;20235;-34
2022/05/23 12:58:35;;;;;;;4.55;2.70;;;25.00;99.90;;;;;;5025505;28;20207;-34
2022/05/23 13:01:07;;;;;;;4.05;2.90;;;25.10;99.90;;;;;;5045829;28;20196;-35
2022/05/23 13:03:38;;;;;;;5.88;3.40;;;25.10;99.90;;;;;;5045711;28;20752;-34
2022/05/23 13:06:32;;;;;;;3.65;2.88;;;25.10;99.90;;;;;;5047236;28;20224;-35
2022/05/23 13:09:11;;;;;;;5.95;2.80;;;25.10;99.90;;;;;;5042409;28;20243;-35
2022/05/23 13:11:55;;;;;;;9.30;3.88;;;25.20;99.90;;;;;;5047691;28;20778;-34
2022/05/23 13:14:23;;;;;;;12.50;3.65;;;25.20;99.90;;;;;;5050028;28;20295;-34
2022/05/23 13:16:58;;;;;;;7.07;3.33;;;25.20;99.90;;;;;;5040405;28;20324;-35
2022/05/23 13:22:21;;;;;;;6.47;3.17;;;25.30;99.90;;;;;;5036283;28;20283;-35
2022/05/23 13:24:59;;;;;;;5.68;3.30;;;25.40;99.90;;;;;;5049678;28;20298;-34
2022/05/23 13:27:38;;;;;;;5.75;3.08;;;25.40;99.90;;;;;;5049132;28;20565;-35
2022/05/23 13:30:08;;;;;;;5.85;2.95;;;25.40;99.90;;;;;;5050051;28;20208;-35
2022/05/23 13:32:40;;;;;;;4.32;3.17;;;25.50;99.90;;;;;;5048727;28;20222;-34
2022/05/23 13:35:25;;;;;;;5.63;3.17;;;25.50;99.90;;;;;;5050076;28;20323;-34
2022/05/23 13:37:55;;;;;;;4.70;3.30;;;25.60;99.90;;;;;;5053818;28;20739;-34
2022/05/23 13:40:29;;;;;;;8.00;3.42;;;25.60;99.90;;;;;;5070779;28;20199;-34
2022/05/23 13:43:31;;;;;;;7.53;3.50;;;25.60;99.90;;;;;;5070241;28;20572;-34
2022/05/23 13:46:30;;;;;;;4.45;3.45;;;25.60;99.90;;;;;;5070289;28;20280;-34
2022/05/23 13:49:08;;;;;;;6.30;3.25;;;25.60;99.90;;;;;;5031061;28;20575;-35
2022/05/23 13:52:14;;;;;;;7.40;3.65;;;25.60;99.90;;;;;;5030398;28;20328;-35
2022/05/23 13:54:54;;;;;;;7.28;3.50;;;25.60;99.90;;;;;;5048345;28;20566;-35
2022/05/23 13:57:32;;;;;;;10.20;3.83;;;25.60;99.90;;;;;;5049846;28;20559;-35
2022/05/23 14:00:09;;;;;;;6.35;3.88;;;25.60;99.90;;;;;;5050783;28;20636;-35
2022/05/23 14:02:43;;;;;;;12.35;4.03;;;25.50;99.90;;;;;;5049624;28;20562;-35
2022/05/23 14:05:11;;;;;;;8.20;3.53;;;25.50;99.90;;;;;;5046145;28;20219;-35
2022/05/23 14:07:43;;;;;;;9.15;3.72;;;25.50;99.90;;;;;;5042755;28;20247;-35
2022/05/23 14:10:20;;;;;;;8.32;3.78;;;25.40;99.90;;;;;;5044345;28;20207;-35
2022/05/23 14:12:47;;;;;;;11.77;4.53;;;25.40;99.90;;;;;;5049807;28;20677;-35
2022/05/23 14:15:29;;;;;;;7.10;3.85;;;25.40;99.90;;;;;;5050044;28;20315;-35
2022/05/23 14:17:58;;;;;;;7.57;4.00;;;25.40;99.90;;;;;;5048275;28;20262;-35
2022/05/23 14:20:28;;;;;;;7.18;3.88;;;25.40;99.90;;;;;;5049766;28;20302;-35